sensor_id;sensor_type;location;lat;lon;timestamp;pressure;altitude;pressure_sealevel;temperature;humidity
8286;BME280;4181;43.416;24.598;2023-04-23T00:02:14;100157.44;;;12.59;100.00
8286;BME280;4181;43.416;24.598;2023-04-23T00:04:47;100172.25;;;12.26;100.00
8286;BME280;4181;43.416;24.598;2023-04-23T00:07:14;100162.53;;;12.09;100.00
8286;BME280;4181;43.416;24.598;2023-04-23T00:09:42;100149.34;;;12.01;100.00
8286;BME280;4181;43.416;24.598;2023-04-23T00:12:09;100155.13;;;12.04;100.00
8286;BME280;4181;43.416;24.598;2023-04-23T00:14:34;100142.72;;;11.97;100.00
8286;BME280;4181;43.416;24.598;2023-04-23T00:17:00;100146.03;;;11.99;100.00
8286;BME280;4181;43.416;24.598;2023-04-23T00:19:25;100136.00;;;12.09;100.00
8286;BME280;4181;43.416;24.598;2023-04-23T00:21:51;100151.09;;;12.17;100.00
8286;BME280;4181;43.416;24.598;2023-04-23T00:24:16;100152.72;;;12.13;100.00
8286;BME280;4181;43.416;24.598;2023-04-23T00:26:42;100151.91;;;12.12;100.00
8286;BME280;4181;43.416;24.598;2023-04-23T00:29:07;100165.56;;;11.81;100.00
8286;BME280;4181;43.416;24.598;2023-04-23T00:31:32;100173.44;;;11.56;100.00
8286;BME280;4181;43.416;24.598;2023-04-23T00:33:58;100180.72;;;11.23;100.00
8286;BME280;4181;43.416;24.598;2023-04-23T00:36:24;100180.22;;;11.26;100.00
8286;BME280;4181;43.416;24.598;2023-04-23T00:38:50;100169.09;;;11.33;100.00
8286;BME280;4181;43.416;24.598;2023-04-23T00:41:16;100153.16;;;11.46;100.00
8286;BME280;4181;43.416;24.598;2023-04-23T00:43:42;100150.97;;;11.48;100.00
8286;BME280;4181;43.416;24.598;2023-04-23T00:46:08;100159.69;;;11.24;100.00
8286;BME280;4181;43.416;24.598;2023-04-23T00:48:35;100151.84;;;11.06;100.00
8286;BME280;4181;43.416;24.598;2023-04-23T00:51:04;100143.72;;;11.11;100.00
8286;BME280;4181;43.416;24.598;2023-04-23T00:53:31;100158.69;;;11.08;100.00
8286;BME280;4181;43.416;24.598;2023-04-23T00:55:57;100150.88;;;11.17;100.00
8286;BME280;4181;43.416;24.598;2023-04-23T00:58:22;100151.97;;;11.16;100.00
8286;BME280;4181;43.416;24.598;2023-04-23T01:00:49;100143.00;;;11.20;100.00
8286;BME280;4181;43.416;24.598;2023-04-23T01:03:16;100134.88;;;11.25;100.00
8286;BME280;4181;43.416;24.598;2023-04-23T01:05:42;100133.59;;;11.33;100.00
8286;BME280;4181;43.416;24.598;2023-04-23T01:08:14;100136.44;;;11.43;100.00
8286;BME280;4181;43.416;24.598;2023-04-23T01:10:41;100150.50;;;11.08;100.00
8286;BME280;4181;43.416;24.598;2023-04-23T01:13:07;100155.41;;;11.06;100.00
8286;BME280;4181;43.416;24.598;2023-04-23T01:15:32;100156.72;;;10.82;100.00
8286;BME280;4181;43.416;24.598;2023-04-23T01:17:58;100158.66;;;10.87;100.00
8286;BME280;4181;43.416;24.598;2023-04-23T01:20:23;100145.41;;;10.95;100.00
8286;BME280;4181;43.416;24.598;2023-04-23T01:22:49;100148.00;;;10.85;100.00
8286;BME280;4181;43.416;24.598;2023-04-23T01:25:15;100150.47;;;10.65;100.00
8286;BME280;4181;43.416;24.598;2023-04-23T01:27:41;100140.09;;;10.46;100.00
8286;BME280;4181;43.416;24.598;2023-04-23T01:30:07;100153.97;;;10.44;100.00
8286;BME280;4181;43.416;24.598;2023-04-23T01:32:33;100155.56;;;10.23;100.00
8286;BME280;4181;43.416;24.598;2023-04-23T01:34:59;100152.63;;;10.47;100.00
8286;BME280;4181;43.416;24.598;2023-04-23T01:37:26;100152.56;;;10.25;100.00
8286;BME280;4181;43.416;24.598;2023-04-23T01:39:52;100135.88;;;10.38;100.00
8286;BME280;4181;43.416;24.598;2023-04-23T01:42:18;100133.28;;;10.48;100.00
8286;BME280;4181;43.416;24.598;2023-04-23T01:44:44;100133.00;;;10.45;100.00
8286;BME280;4181;43.416;24.598;2023-04-23T01:47:10;100139.84;;;10.47;100.00
8286;BME280;4181;43.416;24.598;2023-04-23T01:49:35;100125.69;;;10.50;100.00
8286;BME280;4181;43.416;24.598;2023-04-23T01:52:01;100126.97;;;10.43;100.00
8286;BME280;4181;43.416;24.598;2023-04-23T01:54:28;100121.63;;;10.14;100.00
8286;BME280;4181;43.416;24.598;2023-04-23T01:56:53;100120.75;;;10.31;100.00
8286;BME280;4181;43.416;24.598;2023-04-23T01:59:20;100111.97;;;10.45;100.00
8286;BME280;4181;43.416;24.598;2023-04-23T02:01:47;100116.78;;;10.38;100.00
8286;BME280;4181;43.416;24.598;2023-04-23T02:04:14;100103.25;;;10.27;100.00
8286;BME280;4181;43.416;24.598;2023-04-23T02:06:42;100108.75;;;10.48;100.00
8286;BME280;4181;43.416;24.598;2023-04-23T02:09:08;100108.81;;;10.53;100.00
8286;BME280;4181;43.416;24.598;2023-04-23T02:11:33;100111.28;;;10.71;100.00
8286;BME280;4181;43.416;24.598;2023-04-23T02:14:00;100110.88;;;10.84;100.00
8286;BME280;4181;43.416;24.598;2023-04-23T02:16:26;100120.47;;;10.87;100.00
8286;BME280;4181;43.416;24.598;2023-04-23T02:18:53;100126.31;;;10.95;100.00
8286;BME280;4181;43.416;24.598;2023-04-23T02:21:19;100128.25;;;11.00;100.00
8286;BME280;4181;43.416;24.598;2023-04-23T02:23:45;100127.19;;;11.01;100.00
8286;BME280;4181;43.416;24.598;2023-04-23T02:26:10;100127.25;;;11.06;100.00
8286;BME280;4181;43.416;24.598;2023-04-23T02:28:36;100123.50;;;11.12;100.00
8286;BME280;4181;43.416;24.598;2023-04-23T02:31:01;100123.31;;;11.18;100.00
8286;BME280;4181;43.416;24.598;2023-04-23T02:33:26;100147.56;;;11.15;100.00
8286;BME280;4181;43.416;24.598;2023-04-23T02:35:52;100158.63;;;11.03;100.00
8286;BME280;4181;43.416;24.598;2023-04-23T02:38:17;100163.75;;;11.00;100.00
8286;BME280;4181;43.416;24.598;2023-04-23T02:40:43;100157.41;;;10.94;100.00
8286;BME280;4181;43.416;24.598;2023-04-23T02:43:08;100155.41;;;10.85;100.00
8286;BME280;4181;43.416;24.598;2023-04-23T02:45:34;100134.59;;;10.62;100.00
8286;BME280;4181;43.416;24.598;2023-04-23T02:47:59;100143.22;;;10.54;100.00
8286;BME280;4181;43.416;24.598;2023-04-23T02:50:25;100137.44;;;10.51;100.00
8286;BME280;4181;43.416;24.598;2023-04-23T02:52:50;100148.53;;;10.11;100.00
8286;BME280;4181;43.416;24.598;2023-04-23T02:55:16;100151.78;;;10.08;100.00
8286;BME280;4181;43.416;24.598;2023-04-23T02:57:41;100131.00;;;10.23;100.00
8286;BME280;4181;43.416;24.598;2023-04-23T03:00:08;100163.81;;;10.12;100.00
8286;BME280;4181;43.416;24.598;2023-04-23T03:02:34;100171.94;;;9.95;100.00
8286;BME280;4181;43.416;24.598;2023-04-23T03:04:59;100173.47;;;9.75;100.00
8286;BME280;4181;43.416;24.598;2023-04-23T03:07:25;100163.00;;;9.83;100.00
8286;BME280;4181;43.416;24.598;2023-04-23T03:09:50;100154.59;;;9.85;100.00
8286;BME280;4181;43.416;24.598;2023-04-23T03:12:16;100158.91;;;9.97;100.00
8286;BME280;4181;43.416;24.598;2023-04-23T03:14:42;100163.69;;;10.07;100.00
8286;BME280;4181;43.416;24.598;2023-04-23T03:17:08;100145.56;;;10.12;100.00
8286;BME280;4181;43.416;24.598;2023-04-23T03:19:34;100146.56;;;10.23;100.00
8286;BME280;4181;43.416;24.598;2023-04-23T03:21:59;100136.78;;;10.27;100.00
8286;BME280;4181;43.416;24.598;2023-04-23T03:24:27;100131.81;;;10.41;100.00
8286;BME280;4181;43.416;24.598;2023-04-23T03:26:56;100131.16;;;10.34;100.00
8286;BME280;4181;43.416;24.598;2023-04-23T03:29:22;100136.59;;;10.50;100.00
8286;BME280;4181;43.416;24.598;2023-04-23T03:31:48;100162.56;;;10.53;100.00
8286;BME280;4181;43.416;24.598;2023-04-23T03:34:13;100158.25;;;10.57;100.00
8286;BME280;4181;43.416;24.598;2023-04-23T03:36:39;100161.00;;;10.40;100.00
8286;BME280;4181;43.416;24.598;2023-04-23T03:39:05;100179.75;;;10.20;100.00
8286;BME280;4181;43.416;24.598;2023-04-23T03:41:31;100169.09;;;10.35;100.00
8286;BME280;4181;43.416;24.598;2023-04-23T03:43:57;100175.94;;;10.54;100.00
8286;BME280;4181;43.416;24.598;2023-04-23T03:46:22;100165.38;;;10.58;100.00
8286;BME280;4181;43.416;24.598;2023-04-23T03:48:47;100169.47;;;10.60;100.00
8286;BME280;4181;43.416;24.598;2023-04-23T03:51:13;100175.28;;;10.47;100.00
8286;BME280;4181;43.416;24.598;2023-04-23T03:53:38;100177.09;;;10.42;100.00
8286;BME280;4181;43.416;24.598;2023-04-23T03:56:04;100190.41;;;10.38;100.00
8286;BME280;4181;43.416;24.598;2023-04-23T03:58:29;100174.13;;;10.43;100.00
8286;BME280;4181;43.416;24.598;2023-04-23T04:00:55;100183.22;;;10.49;100.00
8286;BME280;4181;43.416;24.598;2023-04-23T04:03:21;100196.78;;;10.44;100.00
8286;BME280;4181;43.416;24.598;2023-04-23T04:05:47;100208.28;;;10.29;100.00
8286;BME280;4181;43.416;24.598;2023-04-23T04:08:12;100203.06;;;10.28;100.00
8286;BME280;4181;43.416;24.598;2023-04-23T04:10:37;100200.19;;;10.17;100.00
8286;BME280;4181;43.416;24.598;2023-04-23T04:13:03;100193.72;;;10.23;100.00
8286;BME280;4181;43.416;24.598;2023-04-23T04:15:28;100171.41;;;10.60;100.00
8286;BME280;4181;43.416;24.598;2023-04-23T04:17:54;100171.47;;;10.65;100.00
8286;BME280;4181;43.416;24.598;2023-04-23T04:20:19;100162.56;;;10.91;100.00
8286;BME280;4181;43.416;24.598;2023-04-23T04:22:45;100167.31;;;11.00;100.00
8286;BME280;4181;43.416;24.598;2023-04-23T04:25:11;100166.25;;;11.23;100.00
8286;BME280;4181;43.416;24.598;2023-04-23T04:27:36;100172.34;;;11.08;100.00
8286;BME280;4181;43.416;24.598;2023-04-23T04:30:03;100173.03;;;10.99;100.00
8286;BME280;4181;43.416;24.598;2023-04-23T04:32:30;100173.34;;;11.02;100.00
8286;BME280;4181;43.416;24.598;2023-04-23T04:34:56;100176.72;;;11.09;100.00
8286;BME280;4181;43.416;24.598;2023-04-23T04:37:21;100165.41;;;11.22;100.00
8286;BME280;4181;43.416;24.598;2023-04-23T04:39:53;100171.91;;;11.38;100.00
8286;BME280;4181;43.416;24.598;2023-04-23T04:42:19;100166.75;;;11.41;100.00
8286;BME280;4181;43.416;24.598;2023-04-23T04:44:45;100165.56;;;11.59;100.00
8286;BME280;4181;43.416;24.598;2023-04-23T04:47:11;100144.75;;;12.06;100.00
8286;BME280;4181;43.416;24.598;2023-04-23T04:49:37;100151.28;;;12.42;100.00
8286;BME280;4181;43.416;24.598;2023-04-23T04:52:03;100159.19;;;12.70;100.00
8286;BME280;4181;43.416;24.598;2023-04-23T04:54:28;100165.16;;;12.67;100.00
8286;BME280;4181;43.416;24.598;2023-04-23T04:56:54;100163.75;;;13.01;100.00
8286;BME280;4181;43.416;24.598;2023-04-23T04:59:19;100156.75;;;13.35;100.00
8286;BME280;4181;43.416;24.598;2023-04-23T05:01:45;100151.66;;;13.69;100.00
8286;BME280;4181;43.416;24.598;2023-04-23T05:04:10;100156.88;;;13.75;100.00
8286;BME280;4181;43.416;24.598;2023-04-23T05:06:36;100156.91;;;13.90;100.00
8286;BME280;4181;43.416;24.598;2023-04-23T05:09:01;100155.84;;;14.17;100.00
8286;BME280;4181;43.416;24.598;2023-04-23T05:11:27;100145.16;;;14.45;100.00
8286;BME280;4181;43.416;24.598;2023-04-23T05:13:55;100145.16;;;14.55;100.00
8286;BME280;4181;43.416;24.598;2023-04-23T05:16:21;100142.59;;;14.79;100.00
8286;BME280;4181;43.416;24.598;2023-04-23T05:18:46;100132.41;;;14.94;100.00
8286;BME280;4181;43.416;24.598;2023-04-23T05:21:11;100151.78;;;15.28;100.00
8286;BME280;4181;43.416;24.598;2023-04-23T05:23:38;100136.88;;;15.44;100.00
8286;BME280;4181;43.416;24.598;2023-04-23T05:26:04;100129.38;;;15.60;100.00
8286;BME280;4181;43.416;24.598;2023-04-23T05:28:29;100133.47;;;15.62;100.00
8286;BME280;4181;43.416;24.598;2023-04-23T05:30:55;100135.59;;;15.80;100.00
8286;BME280;4181;43.416;24.598;2023-04-23T05:33:21;100129.59;;;16.07;100.00
8286;BME280;4181;43.416;24.598;2023-04-23T05:35:47;100130.00;;;16.24;100.00
8286;BME280;4181;43.416;24.598;2023-04-23T05:38:12;100136.00;;;16.31;100.00
8286;BME280;4181;43.416;24.598;2023-04-23T05:40:38;100143.50;;;16.25;100.00
8286;BME280;4181;43.416;24.598;2023-04-23T05:43:04;100141.75;;;16.34;100.00
8286;BME280;4181;43.416;24.598;2023-04-23T05:45:30;100153.34;;;16.31;100.00
8286;BME280;4181;43.416;24.598;2023-04-23T05:47:55;100152.44;;;16.41;100.00
8286;BME280;4181;43.416;24.598;2023-04-23T05:50:21;100153.78;;;16.49;100.00
8286;BME280;4181;43.416;24.598;2023-04-23T05:52:46;100143.25;;;16.79;100.00
8286;BME280;4181;43.416;24.598;2023-04-23T05:55:12;100142.47;;;17.02;100.00
8286;BME280;4181;43.416;24.598;2023-04-23T05:57:40;100147.97;;;17.26;100.00
8286;BME280;4181;43.416;24.598;2023-04-23T06:00:06;100141.50;;;17.35;100.00
8286;BME280;4181;43.416;24.598;2023-04-23T06:02:41;100127.84;;;17.49;100.00
8286;BME280;4181;43.416;24.598;2023-04-23T06:05:07;100129.13;;;17.75;100.00
8286;BME280;4181;43.416;24.598;2023-04-23T06:07:33;100132.78;;;17.89;100.00
8286;BME280;4181;43.416;24.598;2023-04-23T06:09:59;100126.84;;;18.14;100.00
8286;BME280;4181;43.416;24.598;2023-04-23T06:12:24;100123.50;;;18.49;100.00
8286;BME280;4181;43.416;24.598;2023-04-23T06:14:51;100121.41;;;18.73;100.00
8286;BME280;4181;43.416;24.598;2023-04-23T06:17:17;100114.25;;;18.86;100.00
8286;BME280;4181;43.416;24.598;2023-04-23T06:19:42;100125.81;;;19.02;100.00
8286;BME280;4181;43.416;24.598;2023-04-23T06:22:08;100125.63;;;19.12;100.00
8286;BME280;4181;43.416;24.598;2023-04-23T06:24:34;100111.38;;;19.18;100.00
8286;BME280;4181;43.416;24.598;2023-04-23T06:26:59;100106.88;;;19.49;100.00
8286;BME280;4181;43.416;24.598;2023-04-23T06:29:27;100100.56;;;19.71;100.00
8286;BME280;4181;43.416;24.598;2023-04-23T06:31:55;100097.06;;;20.01;100.00
8286;BME280;4181;43.416;24.598;2023-04-23T06:34:21;100097.94;;;20.10;100.00
8286;BME280;4181;43.416;24.598;2023-04-23T06:36:47;100095.59;;;20.17;100.00
8286;BME280;4181;43.416;24.598;2023-04-23T06:39:12;100086.00;;;20.23;100.00
8286;BME280;4181;43.416;24.598;2023-04-23T06:41:38;100097.34;;;20.35;100.00
8286;BME280;4181;43.416;24.598;2023-04-23T06:44:03;100088.47;;;20.55;100.00
8286;BME280;4181;43.416;24.598;2023-04-23T06:46:30;100089.69;;;20.71;100.00
8286;BME280;4181;43.416;24.598;2023-04-23T06:48:55;100095.81;;;20.90;100.00
8286;BME280;4181;43.416;24.598;2023-04-23T06:51:21;100092.78;;;21.00;100.00
8286;BME280;4181;43.416;24.598;2023-04-23T06:53:46;100087.69;;;20.94;100.00
8286;BME280;4181;43.416;24.598;2023-04-23T06:56:12;100094.66;;;20.83;100.00
8286;BME280;4181;43.416;24.598;2023-04-23T06:58:37;100094.28;;;20.98;100.00
8286;BME280;4181;43.416;24.598;2023-04-23T07:01:03;100093.66;;;21.09;100.00
8286;BME280;4181;43.416;24.598;2023-04-23T07:03:29;100093.50;;;21.23;100.00
8286;BME280;4181;43.416;24.598;2023-04-23T07:05:58;100096.59;;;21.21;100.00
8286;BME280;4181;43.416;24.598;2023-04-23T07:08:24;100108.00;;;21.11;100.00
8286;BME280;4181;43.416;24.598;2023-04-23T07:10:49;100093.38;;;21.19;100.00
8286;BME280;4181;43.416;24.598;2023-04-23T07:13:15;100104.47;;;21.19;100.00
8286;BME280;4181;43.416;24.598;2023-04-23T07:15:41;100092.09;;;21.43;100.00
8286;BME280;4181;43.416;24.598;2023-04-23T07:18:08;100088.53;;;21.68;100.00
8286;BME280;4181;43.416;24.598;2023-04-23T07:20:33;100083.66;;;21.99;100.00
8286;BME280;4181;43.416;24.598;2023-04-23T07:22:59;100084.63;;;22.20;100.00
8286;BME280;4181;43.416;24.598;2023-04-23T07:25:25;100077.91;;;22.38;100.00
8286;BME280;4181;43.416;24.598;2023-04-23T07:27:51;100079.81;;;22.63;100.00
8286;BME280;4181;43.416;24.598;2023-04-23T07:30:18;100077.69;;;22.60;100.00
8286;BME280;4181;43.416;24.598;2023-04-23T07:32:44;100083.56;;;22.50;100.00
8286;BME280;4181;43.416;24.598;2023-04-23T07:35:09;100075.09;;;22.55;100.00
8286;BME280;4181;43.416;24.598;2023-04-23T07:37:36;100079.66;;;22.51;100.00
8286;BME280;4181;43.416;24.598;2023-04-23T07:40:02;100088.19;;;22.37;100.00
8286;BME280;4181;43.416;24.598;2023-04-23T07:42:28;100083.22;;;22.69;100.00
8286;BME280;4181;43.416;24.598;2023-04-23T07:44:54;100079.38;;;22.90;100.00
8286;BME280;4181;43.416;24.598;2023-04-23T07:47:19;100087.66;;;23.07;100.00
8286;BME280;4181;43.416;24.598;2023-04-23T07:49:45;100073.00;;;23.19;100.00
8286;BME280;4181;43.416;24.598;2023-04-23T07:52:10;100070.66;;;23.38;100.00
8286;BME280;4181;43.416;24.598;2023-04-23T07:54:36;100052.31;;;23.57;100.00
8286;BME280;4181;43.416;24.598;2023-04-23T07:57:01;100045.25;;;23.80;100.00
8286;BME280;4181;43.416;24.598;2023-04-23T07:59:28;100056.78;;;23.91;100.00
8286;BME280;4181;43.416;24.598;2023-04-23T08:01:53;100056.53;;;24.05;100.00
8286;BME280;4181;43.416;24.598;2023-04-23T08:04:19;100055.28;;;23.94;100.00
8286;BME280;4181;43.416;24.598;2023-04-23T08:06:44;100056.94;;;23.95;100.00
8286;BME280;4181;43.416;24.598;2023-04-23T08:09:10;100055.97;;;24.11;100.00
8286;BME280;4181;43.416;24.598;2023-04-23T08:11:35;100055.69;;;24.25;100.00
8286;BME280;4181;43.416;24.598;2023-04-23T08:14:01;100049.97;;;24.21;100.00
8286;BME280;4181;43.416;24.598;2023-04-23T08:16:27;100060.47;;;24.04;100.00
8286;BME280;4181;43.416;24.598;2023-04-23T08:18:52;100048.66;;;24.07;100.00
8286;BME280;4181;43.416;24.598;2023-04-23T08:21:18;100051.94;;;24.21;100.00
8286;BME280;4181;43.416;24.598;2023-04-23T08:23:43;100040.69;;;24.29;100.00
8286;BME280;4181;43.416;24.598;2023-04-23T08:26:09;100030.28;;;24.38;100.00
8286;BME280;4181;43.416;24.598;2023-04-23T08:28:34;100041.78;;;24.37;100.00
8286;BME280;4181;43.416;24.598;2023-04-23T08:31:00;100030.97;;;24.47;100.00
8286;BME280;4181;43.416;24.598;2023-04-23T08:33:26;100043.88;;;24.52;100.00
8286;BME280;4181;43.416;24.598;2023-04-23T08:35:51;100039.88;;;24.29;100.00
8286;BME280;4181;43.416;24.598;2023-04-23T08:38:17;100037.13;;;24.41;100.00
8286;BME280;4181;43.416;24.598;2023-04-23T08:40:44;100031.34;;;24.58;100.00
8286;BME280;4181;43.416;24.598;2023-04-23T08:43:16;100035.84;;;24.50;100.00
8286;BME280;4181;43.416;24.598;2023-04-23T08:45:46;100026.56;;;24.46;100.00
8286;BME280;4181;43.416;24.598;2023-04-23T08:48:13;100027.13;;;24.52;100.00
8286;BME280;4181;43.416;24.598;2023-04-23T08:50:42;100030.66;;;24.61;100.00
8286;BME280;4181;43.416;24.598;2023-04-23T08:53:08;100028.28;;;24.39;100.00
8286;BME280;4181;43.416;24.598;2023-04-23T08:55:34;100042.66;;;23.75;100.00
8286;BME280;4181;43.416;24.598;2023-04-23T08:58:00;100038.22;;;23.95;100.00
8286;BME280;4181;43.416;24.598;2023-04-23T09:00:28;100037.84;;;23.85;100.00
8286;BME280;4181;43.416;24.598;2023-04-23T09:02:54;100042.06;;;23.49;100.00
8286;BME280;4181;43.416;24.598;2023-04-23T09:05:20;100028.59;;;23.72;100.00
8286;BME280;4181;43.416;24.598;2023-04-23T09:07:45;100040.06;;;23.70;100.00
8286;BME280;4181;43.416;24.598;2023-04-23T09:10:12;100030.16;;;23.82;100.00
8286;BME280;4181;43.416;24.598;2023-04-23T09:12:39;100063.22;;;23.13;100.00
8286;BME280;4181;43.416;24.598;2023-04-23T09:15:06;100051.47;;;23.07;100.00
8286;BME280;4181;43.416;24.598;2023-04-23T09:17:38;100040.91;;;23.30;100.00
8286;BME280;4181;43.416;24.598;2023-04-23T09:20:05;100046.94;;;23.23;100.00
8286;BME280;4181;43.416;24.598;2023-04-23T09:23:00;100042.94;;;23.12;100.00
8286;BME280;4181;43.416;24.598;2023-04-23T09:25:31;100037.78;;;23.52;100.00
8286;BME280;4181;43.416;24.598;2023-04-23T09:27:57;100040.22;;;23.53;100.00
8286;BME280;4181;43.416;24.598;2023-04-23T09:30:23;100042.31;;;23.36;100.00
8286;BME280;4181;43.416;24.598;2023-04-23T09:32:50;100039.81;;;23.43;100.00
8286;BME280;4181;43.416;24.598;2023-04-23T09:35:17;100021.81;;;23.61;100.00
8286;BME280;4181;43.416;24.598;2023-04-23T09:37:46;100021.53;;;23.74;100.00
8286;BME280;4181;43.416;24.598;2023-04-23T09:40:18;100009.41;;;23.91;100.00
8286;BME280;4181;43.416;24.598;2023-04-23T09:42:48;100013.69;;;24.09;100.00
8286;BME280;4181;43.416;24.598;2023-04-23T09:45:14;100008.69;;;24.03;100.00
8286;BME280;4181;43.416;24.598;2023-04-23T09:47:46;100009.28;;;24.20;100.00
8286;BME280;4181;43.416;24.598;2023-04-23T09:50:12;100012.41;;;23.86;100.00
8286;BME280;4181;43.416;24.598;2023-04-23T09:52:38;100003.31;;;23.77;100.00
8286;BME280;4181;43.416;24.598;2023-04-23T09:55:04;99996.47;;;23.74;100.00
8286;BME280;4181;43.416;24.598;2023-04-23T09:57:37;99996.00;;;24.05;100.00
8286;BME280;4181;43.416;24.598;2023-04-23T10:00:18;100017.63;;;23.55;100.00
8286;BME280;4181;43.416;24.598;2023-04-23T10:02:47;100016.44;;;23.35;100.00
8286;BME280;4181;43.416;24.598;2023-04-23T10:05:15;99999.81;;;23.47;100.00
8286;BME280;4181;43.416;24.598;2023-04-23T10:07:42;100001.41;;;23.69;100.00
8286;BME280;4181;43.416;24.598;2023-04-23T10:10:08;99992.28;;;23.80;100.00
8286;BME280;4181;43.416;24.598;2023-04-23T10:12:34;99986.25;;;23.99;100.00
8286;BME280;4181;43.416;24.598;2023-04-23T10:15:03;99987.13;;;24.12;100.00
8286;BME280;4181;43.416;24.598;2023-04-23T10:17:29;99997.41;;;23.99;100.00
8286;BME280;4181;43.416;24.598;2023-04-23T10:19:55;100005.72;;;23.66;100.00
8286;BME280;4181;43.416;24.598;2023-04-23T10:22:22;100007.97;;;23.23;100.00
8286;BME280;4181;43.416;24.598;2023-04-23T10:24:52;99990.50;;;23.64;100.00
8286;BME280;4181;43.416;24.598;2023-04-23T10:27:22;99974.75;;;24.01;100.00
8286;BME280;4181;43.416;24.598;2023-04-23T10:29:50;99959.31;;;24.03;100.00
8286;BME280;4181;43.416;24.598;2023-04-23T10:32:17;99999.59;;;23.32;100.00
8286;BME280;4181;43.416;24.598;2023-04-23T10:34:42;100003.22;;;23.03;100.00
8286;BME280;4181;43.416;24.598;2023-04-23T10:37:10;99990.25;;;22.78;100.00
8286;BME280;4181;43.416;24.598;2023-04-23T10:39:36;99988.38;;;23.20;100.00
8286;BME280;4181;43.416;24.598;2023-04-23T10:42:03;99997.44;;;22.79;100.00
8286;BME280;4181;43.416;24.598;2023-04-23T10:44:47;99996.56;;;22.49;100.00
8286;BME280;4181;43.416;24.598;2023-04-23T10:47:16;99995.22;;;22.64;100.00
8286;BME280;4181;43.416;24.598;2023-04-23T10:49:42;99999.19;;;22.63;100.00
8286;BME280;4181;43.416;24.598;2023-04-23T10:52:11;99987.28;;;22.83;100.00
8286;BME280;4181;43.416;24.598;2023-04-23T10:54:41;99966.59;;;23.42;100.00
8286;BME280;4181;43.416;24.598;2023-04-23T10:57:07;99952.38;;;23.89;100.00
8286;BME280;4181;43.416;24.598;2023-04-23T10:59:34;99943.31;;;24.12;100.00
8286;BME280;4181;43.416;24.598;2023-04-23T11:02:11;99940.25;;;24.05;100.00
8286;BME280;4181;43.416;24.598;2023-04-23T11:04:56;99936.00;;;23.75;100.00
8286;BME280;4181;43.416;24.598;2023-04-23T11:07:30;99949.44;;;23.73;100.00
8286;BME280;4181;43.416;24.598;2023-04-23T11:10:09;99960.13;;;23.50;100.00
8286;BME280;4181;43.416;24.598;2023-04-23T11:12:38;99963.09;;;23.04;100.00
8286;BME280;4181;43.416;24.598;2023-04-23T11:15:11;99964.78;;;23.17;100.00
8286;BME280;4181;43.416;24.598;2023-04-23T11:22:36;99963.56;;;23.06;100.00
8286;BME280;4181;43.416;24.598;2023-04-23T11:25:02;99953.56;;;23.05;100.00
8286;BME280;4181;43.416;24.598;2023-04-23T11:27:29;99958.50;;;23.08;100.00
8286;BME280;4181;43.416;24.598;2023-04-23T11:29:55;99940.47;;;23.35;100.00
8286;BME280;4181;43.416;24.598;2023-04-23T11:32:21;99925.00;;;23.58;100.00
8286;BME280;4181;43.416;24.598;2023-04-23T11:34:47;99931.88;;;23.93;100.00
8286;BME280;4181;43.416;24.598;2023-04-23T11:37:15;99924.50;;;24.21;100.00
8286;BME280;4181;43.416;24.598;2023-04-23T11:39:42;99920.44;;;24.31;100.00
8286;BME280;4181;43.416;24.598;2023-04-23T11:42:16;99917.44;;;24.36;100.00
8286;BME280;4181;43.416;24.598;2023-04-23T11:44:44;99920.00;;;24.53;100.00
8286;BME280;4181;43.416;24.598;2023-04-23T11:47:11;99914.22;;;24.70;100.00
8286;BME280;4181;43.416;24.598;2023-04-23T11:49:38;99932.03;;;23.76;100.00
8286;BME280;4181;43.416;24.598;2023-04-23T11:52:04;99944.41;;;23.25;100.00
8286;BME280;4181;43.416;24.598;2023-04-23T11:54:30;99940.97;;;23.28;100.00
8286;BME280;4181;43.416;24.598;2023-04-23T11:56:56;99940.19;;;23.28;100.00
8286;BME280;4181;43.416;24.598;2023-04-23T11:59:26;99962.06;;;22.88;100.00
8286;BME280;4181;43.416;24.598;2023-04-23T12:01:54;99954.16;;;22.90;100.00
8286;BME280;4181;43.416;24.598;2023-04-23T12:04:22;99947.03;;;22.81;100.00
8286;BME280;4181;43.416;24.598;2023-04-23T12:06:49;99933.16;;;23.01;100.00
8286;BME280;4181;43.416;24.598;2023-04-23T12:09:16;99916.47;;;23.42;100.00
8286;BME280;4181;43.416;24.598;2023-04-23T12:11:43;99908.56;;;23.65;100.00
8286;BME280;4181;43.416;24.598;2023-04-23T12:14:11;99900.56;;;23.75;100.00
8286;BME280;4181;43.416;24.598;2023-04-23T12:19:13;99880.38;;;24.23;100.00
8286;BME280;4181;43.416;24.598;2023-04-23T12:21:53;99878.16;;;24.53;100.00
8286;BME280;4181;43.416;24.598;2023-04-23T12:24:23;99880.59;;;24.18;100.00
8286;BME280;4181;43.416;24.598;2023-04-23T12:26:55;99886.56;;;23.96;100.00
8286;BME280;4181;43.416;24.598;2023-04-23T12:29:23;99878.41;;;23.79;100.00
8286;BME280;4181;43.416;24.598;2023-04-23T12:31:49;99888.13;;;23.40;100.00
8286;BME280;4181;43.416;24.598;2023-04-23T12:34:17;99892.31;;;23.34;100.00
8286;BME280;4181;43.416;24.598;2023-04-23T12:36:48;99884.94;;;23.50;100.00
8286;BME280;4181;43.416;24.598;2023-04-23T12:41:51;99854.44;;;24.23;100.00
8286;BME280;4181;43.416;24.598;2023-04-23T12:44:17;99837.84;;;24.38;100.00
8286;BME280;4181;43.416;24.598;2023-04-23T12:46:43;99845.75;;;24.48;100.00
8286;BME280;4181;43.416;24.598;2023-04-23T12:49:09;99860.72;;;24.08;100.00
8286;BME280;4181;43.416;24.598;2023-04-23T12:51:35;99862.31;;;23.97;100.00
8286;BME280;4181;43.416;24.598;2023-04-23T12:54:00;99847.94;;;24.19;100.00
8286;BME280;4181;43.416;24.598;2023-04-23T12:56:26;99855.31;;;23.91;100.00
8286;BME280;4181;43.416;24.598;2023-04-23T12:58:51;99835.56;;;23.83;100.00
8286;BME280;4181;43.416;24.598;2023-04-23T13:01:17;99854.13;;;23.67;100.00